Time;durP1;ratioP1;P1;durP2;ratioP2;P2;SDS_P1;SDS_P2;PMS_P1;PMS_P2;Temp;Humidity;BMP_temperature;BMP_pressure;BME280_temperature;BME280_humidity;BME280_pressure;Samples;Min_cycle;Max_cycle;Signal;HPM_P1;HPM_P2
2022/09/04 00:00:23;;;;;;;8.05;4.85;;;;;;;15.40;100.00;100625.28;5588157;31;34642;-69
2022/09/04 00:04:11;;;;;;;10.40;4.70;;;;;;;15.32;100.00;100628.09;5588405;31;35216;-69
2022/09/04 00:07:20;;;;;;;10.45;4.87;;;;;;;15.27;100.00;100628.69;5508563;32;34008;-68
2022/09/04 00:10:49;;;;;;;9.30;5.18;;;;;;;15.18;100.00;100617.31;5508698;31;34532;-68
2022/09/04 00:13:58;;;;;;;8.93;4.97;;;;;;;15.20;100.00;100622.47;5588243;31;34739;-68
2022/09/04 00:17:22;;;;;;;15.10;4.75;;;;;;;15.17;100.00;100630.84;5591103;31;34631;-68
2022/09/04 00:20:37;;;;;;;8.75;4.40;;;;;;;15.37;100.00;100628.34;5590614;31;33892;-68
2022/09/04 00:23:51;;;;;;;9.20;4.43;;;;;;;15.56;100.00;100633.06;5591097;31;34617;-68
2022/09/04 00:27:12;;;;;;;8.15;4.40;;;;;;;15.59;100.00;100643.38;5590560;31;34636;-68
2022/09/04 00:30:19;;;;;;;8.80;4.53;;;;;;;15.61;100.00;100649.34;5589564;31;34554;-68
2022/09/04 00:33:37;;;;;;;6.20;4.18;;;;;;;15.55;100.00;100639.44;5576813;31;32436;-68
2022/09/04 00:36:44;;;;;;;7.12;4.60;;;;;;;15.46;100.00;100651.25;5590557;31;35117;-68
2022/09/04 00:40:04;;;;;;;6.12;4.10;;;;;;;15.41;100.00;100654.50;5590422;31;34857;-68
2022/09/04 00:43:10;;;;;;;6.93;4.25;;;;;;;15.42;100.00;100660.69;5590534;31;33941;-68
2022/09/04 00:46:19;;;;;;;6.37;3.47;;;;;;;15.34;100.00;100652.81;5590326;31;34404;-68
2022/09/04 00:49:37;;;;;;;6.53;3.90;;;;;;;15.32;100.00;100660.19;5590242;31;33939;-68
2022/09/04 00:53:17;;;;;;;7.32;3.90;;;;;;;15.34;100.00;100658.97;5590509;31;34412;-68
2022/09/04 00:56:51;;;;;;;5.35;3.65;;;;;;;15.36;100.00;100658.78;5590348;31;33972;-68
2022/09/04 00:59:59;;;;;;;5.32;3.83;;;;;;;15.38;100.00;100657.56;5590287;31;34039;-68
2022/09/04 01:03:06;;;;;;;8.73;3.90;;;;;;;15.45;100.00;100660.28;5590294;31;34649;-68
2022/09/04 01:06:34;;;;;;;8.80;4.10;;;;;;;15.57;100.00;100656.94;5590152;31;33955;-68
2022/09/04 01:09:36;;;;;;;6.07;3.80;;;;;;;15.52;100.00;100651.34;5590276;31;34683;-68
2022/09/04 01:12:49;;;;;;;9.35;3.80;;;;;;;15.52;100.00;100659.38;5590106;31;34794;-66
2022/09/04 01:16:04;;;;;;;6.50;3.67;;;;;;;15.61;100.00;100658.22;5589422;31;34170;-67
2022/09/04 01:19:12;;;;;;;6.72;3.87;;;;;;;15.67;100.00;100659.28;5590194;31;34043;-67
2022/09/04 01:22:50;;;;;;;8.77;4.60;;;;;;;15.58;100.00;100660.44;5590091;31;34437;-68
2022/09/04 01:26:14;;;;;;;6.87;4.00;;;;;;;15.69;100.00;100661.75;5589159;31;34483;-67
2022/09/04 01:29:59;;;;;;;11.12;4.20;;;;;;;15.61;100.00;100668.91;5590229;31;33903;-67
2022/09/04 01:33:11;;;;;;;8.52;4.25;;;;;;;15.42;100.00;100661.50;5590028;31;34693;-67
2022/09/04 01:36:29;;;;;;;8.13;4.32;;;;;;;15.45;100.00;100669.12;5589920;31;34631;-67
2022/09/04 01:39:34;;;;;;;6.50;4.25;;;;;;;15.52;100.00;100671.91;5589903;31;33922;-68
2022/09/04 01:42:56;;;;;;;7.10;4.25;;;;;;;15.45;100.00;100674.50;5589861;31;34062;-68
2022/09/04 01:46:05;;;;;;;6.78;4.20;;;;;;;15.45;100.00;100682.50;5589820;31;35334;-69
2022/09/04 01:49:22;;;;;;;8.90;4.85;;;;;;;15.42;100.00;100684.75;5589897;31;34034;-69
2022/09/04 01:52:46;;;;;;;8.98;4.68;;;;;;;15.33;100.00;100689.41;5589841;31;33961;-68
2022/09/04 01:56:07;;;;;;;8.65;4.20;;;;;;;15.37;100.00;100681.81;5589359;31;34012;-68
2022/09/04 01:59:31;;;;;;;7.97;4.20;;;;;;;15.41;100.00;100688.44;5589049;31;34681;-69
2022/09/04 02:02:37;;;;;;;6.50;4.25;;;;;;;15.41;100.00;100693.78;5589748;31;33866;-68
2022/09/04 02:05:55;;;;;;;7.95;4.80;;;;;;;15.42;100.00;100692.78;5589725;31;34215;-68
2022/09/04 02:09:31;;;;;;;7.47;3.92;;;;;;;15.44;100.00;100693.41;5588895;31;33935;-69
2022/09/04 02:13:01;;;;;;;9.25;4.35;;;;;;;15.52;100.00;100693.31;5589781;31;34773;-70
2022/09/04 02:16:04;;;;;;;;;;;;;;;15.57;100.00;100693.56;5589948;31;34587;-69
2022/09/04 02:19:34;;;;;;;5.45;3.92;;;;;;;15.61;100.00;100700.16;5589934;31;35115;-69
2022/09/04 02:22:50;;;;;;;7.62;4.07;;;;;;;15.57;100.00;100690.87;5588815;31;34303;-69
2022/09/04 02:26:09;;;;;;;5.87;3.95;;;;;;;15.55;100.00;100692.91;5589609;31;33914;-69
2022/09/04 02:29:24;;;;;;;5.80;4.07;;;;;;;15.54;100.00;100694.75;5588963;31;33805;-69
2022/09/04 02:32:37;;;;;;;9.35;4.30;;;;;;;15.56;100.00;100689.22;5589474;31;34597;-69
2022/09/04 02:36:04;;;;;;;8.85;4.10;;;;;;;15.59;100.00;100691.50;5589869;31;34221;-69
2022/09/04 02:39:34;;;;;;;5.87;4.20;;;;;;;15.57;100.00;100689.03;5589098;31;33893;-69
2022/09/04 02:42:57;;;;;;;7.55;4.05;;;;;;;15.57;100.00;100696.22;5588563;31;34547;-69
2022/09/04 02:46:26;;;;;;;5.85;4.05;;;;;;;15.54;100.00;100692.09;5589419;31;34392;-69
2022/09/04 02:49:57;;;;;;;9.38;3.50;;;;;;;15.52;100.00;100694.13;5589168;31;34062;-69
2022/09/04 02:53:15;;;;;;;7.80;3.92;;;;;;;15.45;100.00;100687.03;5588447;31;34832;-69
2022/09/04 02:56:47;;;;;;;7.57;3.92;;;;;;;15.42;100.00;100692.78;5589187;31;34631;-69
2022/09/04 03:00:07;;;;;;;5.60;3.90;;;;;;;15.50;100.00;100695.31;5589261;31;34311;-69
2022/09/04 03:03:43;;;;;;;6.93;4.03;;;;;;;15.43;100.00;100697.09;5589530;31;34304;-69
2022/09/04 03:06:47;;;;;;;10.50;3.95;;;;;;;15.39;100.00;100704.69;5589041;31;34755;-69
2022/09/04 03:10:11;;;;;;;5.62;4.30;;;;;;;15.30;100.00;100705.81;5588932;31;34005;-69
2022/09/04 03:13:52;;;;;;;6.35;3.75;;;;;;;15.28;100.00;100701.69;5589010;31;33943;-69
2022/09/04 03:17:13;;;;;;;;;;;;;;;15.20;100.00;100695.44;5589267;31;33861;-69
2022/09/04 03:20:27;;;;;;;5.22;3.75;;;;;;;15.10;100.00;100699.44;5588152;31;34320;-69
2022/09/04 03:24:03;;;;;;;7.05;3.95;;;;;;;15.15;100.00;100705.06;5588774;31;33939;-69
2022/09/04 03:27:12;;;;;;;10.02;4.50;;;;;;;15.15;100.00;100702.38;5588538;31;35446;-69
2022/09/04 03:30:16;;;;;;;8.57;4.28;;;;;;;15.08;100.00;100696.12;5587639;31;35192;-69
2022/09/04 03:33:34;;;;;;;8.52;4.10;;;;;;;14.98;100.00;100693.75;5588608;31;34439;-69
2022/09/04 03:37:06;;;;;;;10.68;4.18;;;;;;;14.97;100.00;100701.94;5588812;31;34727;-69
2022/09/04 03:40:18;;;;;;;9.73;4.35;;;;;;;14.90;100.00;100709.06;5587589;31;34669;-69
2022/09/04 03:43:49;;;;;;;8.55;4.15;;;;;;;14.87;100.00;100717.44;5588510;31;33953;-69
2022/09/04 03:47:30;;;;;;;9.02;4.57;;;;;;;14.91;100.00;100716.88;5588301;31;34008;-69
2022/09/04 03:50:55;;;;;;;6.40;4.30;;;;;;;14.82;100.00;100723.34;5589768;31;34558;-69
2022/09/04 03:54:22;;;;;;;7.32;4.37;;;;;;;14.71;100.00;100731.87;5590123;31;33998;-69
2022/09/04 03:57:30;;;;;;;7.70;4.50;;;;;;;14.66;100.00;100743.09;5590074;31;34142;-69
2022/09/04 04:01:03;;;;;;;11.50;4.32;;;;;;;14.79;100.00;100737.94;5590729;31;34981;-69
2022/09/04 04:04:34;;;;;;;8.77;4.75;;;;;;;14.74;100.00;100742.16;5590766;31;34678;-69
2022/09/04 04:07:40;;;;;;;6.12;4.37;;;;;;;14.70;100.00;100738.22;5590742;31;34009;-69
2022/09/04 04:10:55;;;;;;;6.37;4.50;;;;;;;14.63;100.00;100745.28;5591192;31;34646;-69
2022/09/04 04:14:04;;;;;;;6.80;4.55;;;;;;;14.63;100.00;100742.63;5590609;31;34246;-69
2022/09/04 04:17:30;;;;;;;6.65;4.53;;;;;;;14.66;100.00;100751.12;5590564;31;33996;-69
2022/09/04 04:20:49;;;;;;;7.15;4.22;;;;;;;14.75;100.00;100749.16;5590905;31;34399;-69
2022/09/04 04:23:55;;;;;;;7.15;3.78;;;;;;;14.79;100.00;100755.78;5590597;31;33932;-69
2022/09/04 04:27:32;;;;;;;5.47;3.80;;;;;;;14.85;100.00;100763.06;5590549;31;34321;-69
2022/09/04 04:30:51;;;;;;;10.00;4.10;;;;;;;14.96;100.00;100775.13;5576870;31;34283;-69
2022/09/04 04:34:15;;;;;;;5.93;3.62;;;;;;;14.95;100.00;100782.31;5590351;31;34875;-69
2022/09/04 04:37:32;;;;;;;4.35;3.58;;;;;;;14.98;100.00;100784.59;5590421;31;33973;-69
2022/09/04 04:40:58;;;;;;;6.68;3.60;;;;;;;15.07;100.00;100796.00;5590453;31;33918;-69
2022/09/04 04:48:38;;;;;;;4.55;3.33;;;;;;;15.09;100.00;100804.69;5589290;31;34544;-69
2022/09/04 04:51:55;;;;;;;4.80;3.42;;;;;;;15.13;100.00;100803.28;5590416;31;33995;-69
2022/09/04 04:55:17;;;;;;;3.50;3.20;;;;;;;15.23;100.00;100806.50;5590274;31;35135;-69
2022/09/04 04:58:33;;;;;;;4.78;2.97;;;;;;;15.29;100.00;100807.59;5590358;31;34603;-69
2022/09/04 05:02:06;;;;;;;7.53;2.87;;;;;;;15.42;100.00;100810.41;5590275;31;34413;-69
2022/09/04 05:05:54;;;;;;;4.22;2.80;;;;;;;15.56;100.00;100814.91;5590224;31;34587;-69
2022/09/04 05:09:40;;;;;;;4.55;3.28;;;;;;;15.58;100.00;100813.72;5570622;31;34776;-70
2022/09/04 05:12:58;;;;;;;4.95;3.42;;;;;;;15.64;100.00;100820.97;5589568;31;33404;-69
2022/09/04 05:16:32;;;;;;;4.12;2.97;;;;;;;15.72;100.00;100820.03;5590206;31;34184;-69
2022/09/04 05:20:14;;;;;;;3.60;3.03;;;;;;;15.84;100.00;100831.03;5589439;31;32352;-69
2022/09/04 05:23:40;;;;;;;5.47;3.33;;;;;;;16.02;99.67;100831.44;5587438;31;33918;-69
2022/09/04 05:26:59;;;;;;;4.87;3.30;;;;;;;16.08;99.78;100830.66;5589700;31;34468;-68
2022/09/04 05:30:13;;;;;;;4.05;2.87;;;;;;;16.38;97.56;100829.47;5589442;31;34634;-69
2022/09/04 05:33:41;;;;;;;4.45;2.55;;;;;;;16.58;97.27;100836.81;5589498;31;34004;-69
2022/09/04 05:36:47;;;;;;;3.55;2.40;;;;;;;16.80;96.69;100833.06;5590315;31;33988;-69
2022/09/04 05:40:02;;;;;;;3.72;2.53;;;;;;;16.70;95.07;100841.44;5589930;31;33913;-69
2022/09/04 05:43:14;;;;;;;4.20;2.40;;;;;;;16.78;93.31;100845.84;5590184;31;34610;-69
2022/09/04 05:46:48;;;;;;;4.47;2.28;;;;;;;17.07;91.28;100842.91;5589835;31;34749;-68
2022/09/04 05:50:05;;;;;;;5.28;2.60;;;;;;;16.85;91.19;100854.72;5590096;31;34529;-69
2022/09/04 05:53:14;;;;;;;3.85;2.42;;;;;;;16.66;92.92;100845.56;5589893;31;33860;-69
2022/09/04 05:56:41;;;;;;;2.85;2.55;;;;;;;16.63;93.95;100855.84;5589641;31;33990;-69
2022/09/04 06:00:03;;;;;;;4.43;2.67;;;;;;;16.52;93.60;100858.00;5589008;31;34008;-69
2022/09/04 06:03:54;;;;;;;3.25;2.53;;;;;;;16.68;93.34;100864.13;5589781;31;34034;-69
2022/09/04 06:07:25;;;;;;;4.35;2.97;;;;;;;16.77;93.04;100860.25;5563314;31;34480;-69
2022/09/04 06:10:59;;;;;;;5.25;2.87;;;;;;;16.75;93.10;100863.13;5589507;31;33922;-69
2022/09/04 06:14:20;;;;;;;6.40;2.40;;;;;;;16.96;92.67;100851.50;5588733;31;34369;-69
2022/09/04 06:17:44;;;;;;;3.87;2.60;;;;;;;16.76;88.46;100855.91;5588199;31;34257;-69
2022/09/04 06:20:56;;;;;;;5.20;2.00;;;;;;;16.78;87.20;100845.84;5588839;31;34156;-69
2022/09/04 06:24:30;;;;;;;4.18;2.37;;;;;;;16.75;85.70;100855.09;5589491;31;34042;-69
2022/09/04 06:27:54;;;;;;;2.95;1.90;;;;;;;16.79;85.72;100853.69;5589137;31;33869;-69
2022/09/04 06:31:04;;;;;;;3.05;2.47;;;;;;;16.68;86.42;100851.56;5588584;31;32654;-69
2022/09/04 06:34:25;;;;;;;3.37;2.92;;;;;;;16.61;86.77;100860.56;5589309;31;34567;-69
2022/09/04 06:37:42;;;;;;;3.65;3.20;;;;;;;17.05;86.26;100860.22;5588673;31;32914;-69
2022/09/04 06:41:04;;;;;;;6.20;3.20;;;;;;;16.83;90.54;100859.47;5588628;31;32286;-70
2022/09/04 06:44:20;;;;;;;3.85;2.97;;;;;;;16.72;92.23;100858.16;5589191;31;33964;-69
2022/09/04 06:48:10;;;;;;;4.53;2.78;;;;;;;16.91;90.79;100870.87;5589167;31;34035;-69
2022/09/04 06:51:25;;;;;;;4.05;2.75;;;;;;;17.08;88.71;100862.50;5541343;31;34722;-69
2022/09/04 06:54:45;;;;;;;4.70;2.78;;;;;;;17.21;88.93;100878.66;5589285;31;33966;-69
2022/09/04 06:58:10;;;;;;;2.95;2.45;;;;;;;17.16;89.50;100876.56;5588321;31;33896;-70
2022/09/04 07:01:45;;;;;;;3.53;2.30;;;;;;;16.55;91.76;100883.56;5589059;31;33919;-69
2022/09/04 07:04:54;;;;;;;5.32;2.70;;;;;;;16.57;90.97;100878.00;5588821;31;34657;-67
2022/09/04 07:08:09;;;;;;;3.22;2.35;;;;;;;16.65;91.09;100877.91;5588961;31;35008;-68
2022/09/04 07:11:30;;;;;;;3.22;2.22;;;;;;;16.63;89.57;100878.09;5588908;31;34034;-67
2022/09/04 07:14:44;;;;;;;3.22;2.50;;;;;;;16.52;90.60;100886.62;5588775;31;33970;-69
2022/09/04 07:18:00;;;;;;;3.30;2.33;;;;;;;16.37;92.34;100894.75;5589034;31;33950;-68
2022/09/04 07:21:28;;;;;;;2.97;2.10;;;;;;;16.50;93.62;100894.87;5587770;31;32943;-70
2022/09/04 07:24:37;;;;;;;5.00;2.05;;;;;;;16.68;91.41;100890.91;5589296;31;34219;-69
2022/09/04 07:27:58;;;;;;;3.40;2.30;;;;;;;16.94;88.60;100897.25;5590002;31;33176;-70
2022/09/04 07:31:19;;;;;;;4.72;2.20;;;;;;;16.82;88.91;100892.66;5589934;31;33327;-68
2022/09/04 07:34:22;;;;;;;4.22;2.20;;;;;;;16.82;89.07;100895.34;5590196;31;34518;-69
2022/09/04 07:37:59;;;;;;;2.30;2.10;;;;;;;16.79;89.23;100899.25;5590645;31;34156;-69
2022/09/04 07:41:15;;;;;;;4.57;2.33;;;;;;;16.97;88.19;100906.78;5590054;31;34218;-68
2022/09/04 07:44:50;;;;;;;3.33;2.40;;;;;;;17.30;86.46;100906.97;5590569;31;34583;-69
2022/09/04 07:48:15;;;;;;;4.15;2.35;;;;;;;17.26;85.24;100913.75;5589844;31;34074;-68
2022/09/04 07:51:26;;;;;;;3.30;2.05;;;;;;;17.55;84.03;100908.13;5590860;31;33864;-69
2022/09/04 07:54:56;;;;;;;2.80;1.85;;;;;;;17.65;82.88;100921.19;5590430;31;35310;-69
2022/09/04 07:58:12;;;;;;;5.40;2.20;;;;;;;17.70;81.31;100927.63;5590361;31;34832;-70
2022/09/04 08:01:43;;;;;;;2.62;2.00;;;;;;;17.72;82.04;100919.34;5590449;31;34730;-69
2022/09/04 08:04:52;;;;;;;2.05;1.83;;;;;;;17.68;83.34;100921.59;5589620;31;32838;-69
2022/09/04 08:08:29;;;;;;;2.55;1.80;;;;;;;17.55;82.88;100915.34;5590519;31;33941;-69
2022/09/04 08:11:47;;;;;;;2.87;1.92;;;;;;;17.67;83.24;100924.50;5589471;31;33964;-69
2022/09/04 08:14:53;;;;;;;4.70;2.00;;;;;;;17.72;83.18;100930.06;5589391;31;32535;-69
2022/09/04 08:18:38;;;;;;;3.70;2.10;;;;;;;17.63;82.48;100923.22;5589703;31;33091;-69
2022/09/04 08:21:46;;;;;;;2.53;2.20;;;;;;;17.91;81.91;100932.00;5590314;31;33712;-69
2022/09/04 08:25:15;;;;;;;3.85;2.17;;;;;;;18.13;80.15;100938.87;5590367;31;35140;-68
2022/09/04 08:28:25;;;;;;;4.10;2.73;;;;;;;18.15;80.21;100936.00;5589014;31;32436;-68
2022/09/04 08:31:41;;;;;;;2.97;2.22;;;;;;;18.85;77.53;100931.94;5590083;31;34092;-69
2022/09/04 08:35:09;;;;;;;3.58;2.15;;;;;;;19.04;74.99;100937.28;5588978;31;34626;-69
2022/09/04 08:38:33;;;;;;;4.80;2.20;;;;;;;19.28;73.29;100935.78;5589256;31;32308;-69
2022/09/04 08:42:04;;;;;;;3.17;2.33;;;;;;;19.20;74.57;100941.41;5588869;31;34225;-69
2022/09/04 08:45:34;;;;;;;2.40;2.12;;;;;;;19.31;73.27;100945.31;5590009;31;33922;-69
2022/09/04 08:49:22;;;;;;;2.87;2.10;;;;;;;19.10;74.34;100944.53;5589172;31;34292;-69
2022/09/04 08:52:34;;;;;;;3.72;2.00;;;;;;;19.41;74.00;100943.00;5589618;31;33673;-69
2022/09/04 08:56:06;;;;;;;3.33;2.00;;;;;;;19.37;75.13;100952.50;5589024;31;32585;-69
2022/09/04 08:59:39;;;;;;;2.65;1.85;;;;;;;19.45;74.86;100953.16;5589609;31;34669;-69
2022/09/04 09:03:10;;;;;;;3.65;1.90;;;;;;;19.02;76.29;100949.28;5589586;31;34097;-69
2022/09/04 09:06:35;;;;;;;2.58;1.95;;;;;;;18.89;76.65;100960.88;5589402;31;34861;-67
2022/09/04 09:09:54;;;;;;;3.00;1.92;;;;;;;19.30;74.96;100960.62;5588876;31;34678;-67
2022/09/04 09:13:11;;;;;;;3.83;1.60;;;;;;;19.73;72.93;100957.41;5589241;31;34333;-69
2022/09/04 09:16:20;;;;;;;3.12;2.30;;;;;;;19.44;74.02;100958.75;5588749;31;34036;-69
2022/09/04 09:19:39;;;;;;;4.35;2.22;;;;;;;19.76;72.80;100956.97;5589379;31;35319;-69
2022/09/04 09:23:03;;;;;;;3.53;2.30;;;;;;;19.85;72.50;100958.38;5588780;31;34207;-69
2022/09/04 09:26:27;;;;;;;4.32;2.30;;;;;;;19.84;72.62;100954.88;5588934;31;32314;-70
2022/09/04 09:29:57;;;;;;;3.45;2.20;;;;;;;19.67;73.45;100959.06;5588266;31;33249;-69
2022/09/04 09:33:22;;;;;;;3.65;2.50;;;;;;;19.37;75.01;100956.03;5589450;31;34340;-68
2022/09/04 09:36:47;;;;;;;5.30;2.50;;;;;;;19.85;73.91;100967.28;5589844;31;33929;-69
2022/09/04 09:40:11;;;;;;;4.65;2.45;;;;;;;20.05;71.73;100966.34;5588686;31;34618;-66
2022/09/04 09:43:32;;;;;;;4.28;2.42;;;;;;;19.99;71.89;100956.47;5588876;31;32842;-70
2022/09/04 09:47:03;;;;;;;3.92;2.55;;;;;;;20.33;71.01;100961.47;5589068;31;34034;-70
2022/09/04 09:50:24;;;;;;;3.12;2.50;;;;;;;20.44;70.53;100974.22;5589447;31;34613;-69
2022/09/04 09:53:59;;;;;;;3.05;2.30;;;;;;;20.06;72.17;100973.41;5588627;31;32416;-68
2022/09/04 09:57:14;;;;;;;3.33;2.10;;;;;;;21.00;69.17;100968.81;5588625;31;34323;-69
2022/09/04 10:00:20;;;;;;;4.12;2.17;;;;;;;20.20;71.61;100966.88;5589543;31;33919;-70
2022/09/04 10:03:39;;;;;;;3.37;2.50;;;;;;;19.99;72.74;100956.47;5588843;31;34201;-70
2022/09/04 10:07:27;;;;;;;5.53;2.20;;;;;;;20.23;71.50;100956.53;5589388;31;34728;-68
2022/09/04 10:10:45;;;;;;;3.22;2.10;;;;;;;20.74;70.27;100967.16;5573263;31;32442;-69
2022/09/04 10:13:56;;;;;;;5.47;2.30;;;;;;;19.87;73.22;100961.69;5589458;31;34882;-67
2022/09/04 10:17:34;;;;;;;3.90;2.37;;;;;;;19.19;76.88;100963.94;5588760;31;32661;-69
2022/09/04 10:21:10;;;;;;;4.47;2.47;;;;;;;19.30;76.84;100970.56;5588424;31;33329;-69
2022/09/04 10:24:41;;;;;;;3.05;2.28;;;;;;;19.01;79.03;100971.84;5589444;31;34097;-69
2022/09/04 10:27:47;;;;;;;2.40;2.20;;;;;;;18.98;79.50;100974.94;5582432;31;219015;-69
2022/09/04 10:31:17;;;;;;;4.47;2.33;;;;;;;18.95;79.55;100967.28;5588397;31;33255;-68
2022/09/04 10:35:06;;;;;;;2.85;2.45;;;;;;;19.01;80.21;100964.59;5575683;31;32404;-68
2022/09/04 10:38:24;;;;;;;8.07;2.40;;;;;;;18.89;80.20;100952.81;5588547;31;34204;-69
2022/09/04 10:41:34;;;;;;;3.97;2.47;;;;;;;19.12;80.62;100955.87;5589303;31;33960;-68
2022/09/04 10:44:53;;;;;;;3.72;2.58;;;;;;;19.26;80.49;100963.94;5589305;31;34206;-69
2022/09/04 10:48:00;;;;;;;3.53;2.45;;;;;;;19.43;80.24;100967.81;5575519;31;33266;-68
2022/09/04 10:51:38;;;;;;;3.75;2.60;;;;;;;19.38;80.52;100973.00;5575473;31;32754;-68
2022/09/04 10:54:56;;;;;;;3.75;2.70;;;;;;;19.50;79.84;100971.38;5589170;31;33993;-69
2022/09/04 10:58:34;;;;;;;3.97;2.62;;;;;;;19.08;82.24;100964.56;5588221;31;33548;-68
2022/09/04 11:02:20;;;;;;;3.87;2.50;;;;;;;19.02;82.53;100960.06;5588374;31;32754;-67
2022/09/04 11:05:40;;;;;;;6.18;2.67;;;;;;;19.23;81.61;100964.34;5509214;32;34258;-69
2022/09/04 11:09:02;;;;;;;2.70;2.35;;;;;;;19.39;81.16;100955.84;5483888;32;33312;-69
2022/09/04 11:12:30;;;;;;;4.35;2.50;;;;;;;19.01;82.82;100961.09;5508995;32;33812;-69
2022/09/04 11:16:12;;;;;;;3.03;2.40;;;;;;;19.58;79.82;100962.22;5487799;32;34083;-69
2022/09/04 11:19:33;;;;;;;4.35;2.83;;;;;;;19.59;80.62;100956.63;5493501;32;32476;-69
2022/09/04 11:22:54;;;;;;;5.95;2.70;;;;;;;19.75;79.09;100958.03;5483787;32;33742;-68
2022/09/04 11:26:04;;;;;;;3.58;2.33;;;;;;;20.32;74.96;100968.72;5496429;32;34620;-70
2022/09/04 11:29:17;;;;;;;5.47;2.80;;;;;;;20.47;75.60;100964.91;5509168;32;33948;-68
2022/09/04 11:32:30;;;;;;;3.17;2.60;;;;;;;20.82;73.05;100968.75;5495972;32;32628;-68
2022/09/04 11:36:11;;;;;;;6.90;3.00;;;;;;;21.02;72.86;100966.72;5539843;31;33882;-68
2022/09/04 11:39:31;;;;;;;3.12;2.70;;;;;;;20.98;71.94;100970.91;5587754;31;33448;-69
2022/09/04 11:43:09;;;;;;;5.78;3.03;;;;;;;21.26;70.03;100962.34;5587800;31;33483;-68
2022/09/04 11:46:33;;;;;;;5.55;3.15;;;;;;;21.54;68.70;100975.34;5587486;31;32524;-68
2022/09/04 11:50:04;;;;;;;4.43;2.90;;;;;;;21.57;69.44;100977.59;5587176;31;34608;-70
2022/09/04 11:53:39;;;;;;;4.62;2.87;;;;;;;21.75;67.74;100977.56;5587745;31;34633;-69
2022/09/04 11:57:06;;;;;;;5.15;2.80;;;;;;;22.29;65.12;100970.44;5588211;31;34470;-69
2022/09/04 12:00:13;;;;;;;4.22;2.95;;;;;;;22.57;64.27;100965.22;5587299;31;32448;-69
2022/09/04 12:03:38;;;;;;;3.67;2.72;;;;;;;23.35;61.73;100956.81;5574377;31;32656;-69
2022/09/04 12:06:52;;;;;;;4.07;3.12;;;;;;;23.37;59.75;100966.38;5587843;31;34004;-69
2022/09/04 12:10:20;;;;;;;4.20;2.90;;;;;;;23.16;60.44;100955.31;5588593;31;34039;-69
2022/09/04 12:13:42;;;;;;;6.32;3.35;;;;;;;23.67;57.36;100947.22;5576994;31;32096;-69
2022/09/04 12:17:30;;;;;;;6.62;3.33;;;;;;;23.46;58.41;100945.19;5589958;31;32687;-69
2022/09/04 12:21:02;;;;;;;3.92;2.65;;;;;;;24.01;57.30;100948.16;5590447;31;33397;-69
2022/09/04 12:24:33;;;;;;;4.62;2.85;;;;;;;25.14;55.17;100949.84;5590908;31;33892;-70
2022/09/04 12:27:41;;;;;;;4.60;2.67;;;;;;;24.93;52.76;100946.00;5589702;31;32745;-70
2022/09/04 12:30:54;;;;;;;3.65;2.50;;;;;;;24.21;55.94;100945.03;5590130;31;35025;-69
2022/09/04 12:34:41;;;;;;;5.68;2.85;;;;;;;23.35;57.21;100938.69;5589953;31;33108;-70
2022/09/04 12:38:28;;;;;;;5.62;2.60;;;;;;;24.10;54.92;100935.06;5517262;31;33227;-70
2022/09/04 12:41:46;;;;;;;3.33;2.45;;;;;;;23.35;56.64;100933.28;5589668;31;33792;-70
2022/09/04 12:45:01;;;;;;;4.12;2.50;;;;;;;23.49;55.63;100933.84;5590332;31;34636;-69
2022/09/04 12:48:15;;;;;;;5.03;2.75;;;;;;;23.98;55.48;100935.13;5590319;31;35248;-69
2022/09/04 12:51:22;;;;;;;5.65;2.78;;;;;;;23.34;57.03;100933.50;5589426;31;34009;-69
2022/09/04 12:54:42;;;;;;;4.40;2.53;;;;;;;23.15;57.84;100923.88;5589421;31;33920;-68
2022/09/04 12:58:08;;;;;;;4.50;3.17;;;;;;;23.47;56.07;100921.63;5590026;31;33946;-69
2022/09/04 13:01:30;;;;;;;4.80;2.47;;;;;;;24.79;52.58;100924.84;5589611;31;32339;-68
2022/09/04 13:05:02;;;;;;;5.78;2.80;;;;;;;25.53;50.46;100921.59;5589990;31;34220;-68
2022/09/04 13:08:26;;;;;;;6.10;2.40;;;;;;;27.23;45.43;100922.63;5589265;31;33791;-69
2022/09/04 13:11:57;;;;;;;5.57;2.50;;;;;;;27.65;43.59;100910.81;5589916;31;34266;-68
2022/09/04 13:15:20;;;;;;;4.37;2.80;;;;;;;29.84;38.52;100917.75;5590108;31;34614;-68
2022/09/04 13:18:48;;;;;;;4.35;1.87;;;;;;;30.74;37.31;100916.31;5589859;31;33984;-67
2022/09/04 13:22:23;;;;;;;3.28;2.00;;;;;;;30.64;36.20;100908.97;5587992;31;33136;-70
2022/09/04 13:26:00;;;;;;;4.47;2.10;;;;;;;34.32;29.15;100900.41;5533991;31;34588;-69
2022/09/04 13:29:29;;;;;;;4.05;1.90;;;;;;;32.30;33.66;100888.81;5589102;31;32581;-70
2022/09/04 13:32:48;;;;;;;2.85;1.70;;;;;;;35.43;27.70;100895.78;5589811;31;34634;-70
2022/09/04 13:36:15;;;;;;;3.42;2.28;;;;;;;34.93;29.33;100895.25;5589892;31;34175;-69
2022/09/04 13:39:34;;;;;;;6.60;2.17;;;;;;;35.62;27.21;100896.28;5589105;31;33510;-70
2022/09/04 13:43:10;;;;;;;3.62;2.17;;;;;;;30.69;34.72;100890.87;5589881;31;34025;-69
2022/09/04 13:46:28;;;;;;;3.92;2.03;;;;;;;27.94;40.63;100882.00;5589508;31;33903;-70
2022/09/04 13:50:07;;;;;;;4.07;2.12;;;;;;;27.25;43.75;100889.69;5589058;31;33594;-69
2022/09/04 13:53:34;;;;;;;3.70;2.20;;;;;;;26.10;46.76;100890.41;5588864;31;32623;-70
2022/09/04 13:56:46;;;;;;;3.33;2.22;;;;;;;26.04;46.54;100883.31;5589781;31;35252;-69
2022/09/04 13:59:52;;;;;;;3.87;2.30;;;;;;;25.52;48.09;100872.94;5588949;31;33224;-70
2022/09/04 14:03:02;;;;;;;9.30;2.20;;;;;;;25.30;48.72;100874.84;5588982;31;32417;-70
2022/09/04 14:06:09;;;;;;;3.10;2.30;;;;;;;25.31;49.16;100877.31;5588885;31;35300;-68
2022/09/04 14:09:14;;;;;;;4.25;2.17;;;;;;;25.39;48.77;100876.88;5588790;31;32464;-68
2022/09/04 14:12:39;;;;;;;3.92;2.58;;;;;;;24.82;50.30;100878.25;5588486;31;34370;-69
2022/09/04 14:16:00;;;;;;;4.22;2.42;;;;;;;24.39;50.82;100882.47;5589597;31;35182;-69
2022/09/04 14:19:22;;;;;;;4.93;2.40;;;;;;;24.46;51.21;100872.25;5589431;31;33991;-69
2022/09/04 14:22:56;;;;;;;4.68;2.20;;;;;;;24.83;50.90;100874.47;5589300;31;33933;-70
2022/09/04 14:26:14;;;;;;;3.67;2.22;;;;;;;24.24;50.84;100874.09;5588527;31;34716;-67
2022/09/04 14:29:20;;;;;;;3.42;2.20;;;;;;;24.00;51.67;100888.81;5588455;31;33300;-70
2022/09/04 14:32:39;;;;;;;7.37;2.42;;;;;;;23.42;52.97;100875.47;5587873;31;32405;-69
2022/09/04 14:36:20;;;;;;;5.40;2.60;;;;;;;23.55;52.50;100872.50;5587960;31;32765;-67
2022/09/04 14:39:35;;;;;;;3.33;2.40;;;;;;;23.73;51.62;100873.12;5589156;31;34124;-69
2022/09/04 14:42:44;;;;;;;3.30;2.20;;;;;;;23.55;52.78;100873.31;5589380;31;34081;-69
2022/09/04 14:46:05;;;;;;;4.32;2.47;;;;;;;23.98;51.93;100878.19;5589159;31;34862;-67
2022/09/04 14:49:22;;;;;;;4.55;2.50;;;;;;;24.40;50.26;100886.00;5589250;31;35274;-68
2022/09/04 14:52:31;;;;;;;3.58;2.40;;;;;;;23.75;53.96;100878.31;5589217;31;34024;-68
2022/09/04 14:56:03;;;;;;;3.30;2.35;;;;;;;23.57;55.37;100882.03;5576164;31;33912;-68
2022/09/04 14:59:09;;;;;;;3.30;2.60;;;;;;;23.00;59.07;100886.47;5588890;31;34569;-69
2022/09/04 15:02:22;;;;;;;4.47;2.42;;;;;;;22.96;59.76;100888.84;5588048;31;33899;-69
2022/09/04 15:05:33;;;;;;;3.20;2.20;;;;;;;22.74;60.81;100879.69;5588729;31;35388;-65
2022/09/04 15:08:37;;;;;;;4.80;2.33;;;;;;;22.42;61.14;100889.13;5588529;31;33893;-68
2022/09/04 15:11:43;;;;;;;5.53;2.58;;;;;;;22.20;62.20;100891.56;5587114;31;33889;-69
2022/09/04 15:14:50;;;;;;;4.10;2.75;;;;;;;22.09;62.03;100893.19;5588045;31;33188;-69
2022/09/04 15:18:02;;;;;;;3.75;2.87;;;;;;;22.26;61.35;100901.47;5588446;31;34904;-69
2022/09/04 15:21:22;;;;;;;7.18;2.65;;;;;;;22.47;59.96;100898.19;5588446;31;33997;-70
2022/09/04 15:24:47;;;;;;;3.47;2.45;;;;;;;22.62;59.36;100900.44;5588513;31;34583;-69
2022/09/04 15:27:57;;;;;;;4.45;2.85;;;;;;;22.41;60.98;100903.72;5588402;31;34032;-69
2022/09/04 15:31:19;;;;;;;3.97;2.70;;;;;;;22.64;61.21;100905.63;5587516;31;32417;-69
2022/09/04 15:34:25;;;;;;;4.40;2.30;;;;;;;22.69;60.24;100909.28;5574500;31;32835;-69
2022/09/04 15:37:28;;;;;;;3.92;2.90;;;;;;;23.04;59.64;100906.62;5588092;31;33892;-68